sensor_id;sensor_type;location;lat;lon;timestamp;pressure;altitude;pressure_sealevel;temperature;humidity
48614;BME280;34408;51.426;5.444;2022-12-10T00:01:09;100782.09;;;5.69;55.76
48614;BME280;34408;51.426;5.444;2022-12-10T00:03:37;100775.94;;;5.68;55.96
48614;BME280;34408;51.426;5.444;2022-12-10T00:06:07;100779.63;;;5.67;55.61
48614;BME280;34408;51.426;5.444;2022-12-10T00:08:35;100776.13;;;5.67;55.77
48614;BME280;34408;51.426;5.444;2022-12-10T00:11:03;100784.13;;;5.67;55.55
48614;BME280;34408;51.426;5.444;2022-12-10T00:13:34;100788.63;;;5.66;55.42
48614;BME280;34408;51.426;5.444;2022-12-10T00:16:05;100791.94;;;5.68;55.60
48614;BME280;34408;51.426;5.444;2022-12-10T00:18:34;100780.00;;;5.64;55.86
48614;BME280;34408;51.426;5.444;2022-12-10T00:21:02;100786.16;;;5.65;55.80
48614;BME280;34408;51.426;5.444;2022-12-10T00:23:31;100788.84;;;5.65;55.46
48614;BME280;34408;51.426;5.444;2022-12-10T00:26:02;100788.00;;;5.64;55.97
48614;BME280;34408;51.426;5.444;2022-12-10T00:28:30;100788.84;;;5.65;55.63
48614;BME280;34408;51.426;5.444;2022-12-10T00:31:04;100796.00;;;5.64;55.87
48614;BME280;34408;51.426;5.444;2022-12-10T00:33:32;100800.31;;;5.65;55.58
48614;BME280;34408;51.426;5.444;2022-12-10T00:36:04;100807.50;;;5.65;55.75
48614;BME280;34408;51.426;5.444;2022-12-10T00:38:32;100798.84;;;5.63;55.65
48614;BME280;34408;51.426;5.444;2022-12-10T00:41:00;100809.34;;;5.64;55.58
48614;BME280;34408;51.426;5.444;2022-12-10T00:43:28;100786.47;;;5.55;55.51
48614;BME280;34408;51.426;5.444;2022-12-10T00:45:56;100797.03;;;5.63;55.63
48614;BME280;34408;51.426;5.444;2022-12-10T00:48:25;100793.72;;;5.61;55.60
48614;BME280;34408;51.426;5.444;2022-12-10T00:50:57;100784.91;;;5.61;55.67
48614;BME280;34408;51.426;5.444;2022-12-10T00:53:27;100784.06;;;5.60;55.55
48614;BME280;34408;51.426;5.444;2022-12-10T00:55:55;100782.41;;;5.59;55.34
48614;BME280;34408;51.426;5.444;2022-12-10T00:58:26;100787.75;;;5.59;55.41
48614;BME280;34408;51.426;5.444;2022-12-10T01:00:54;100777.09;;;5.59;55.36
48614;BME280;34408;51.426;5.444;2022-12-10T01:03:22;100784.25;;;5.59;55.30
48614;BME280;34408;51.426;5.444;2022-12-10T01:05:51;100778.94;;;5.59;55.75
48614;BME280;34408;51.426;5.444;2022-12-10T01:08:18;100783.44;;;5.58;55.58
48614;BME280;34408;51.426;5.444;2022-12-10T01:10:52;100773.78;;;5.57;55.60
48614;BME280;34408;51.426;5.444;2022-12-10T01:13:20;100775.00;;;5.54;56.00
48614;BME280;34408;51.426;5.444;2022-12-10T01:15:47;100778.47;;;5.55;55.44
48614;BME280;34408;51.426;5.444;2022-12-10T01:18:15;100786.47;;;5.55;55.67
48614;BME280;34408;51.426;5.444;2022-12-10T01:20:43;100789.16;;;5.55;55.61
48614;BME280;34408;51.426;5.444;2022-12-10T01:23:12;100787.50;;;5.54;55.54
48614;BME280;34408;51.426;5.444;2022-12-10T01:25:40;100799.19;;;5.53;55.67
48614;BME280;34408;51.426;5.444;2022-12-10T01:28:07;100792.84;;;5.54;55.83
48614;BME280;34408;51.426;5.444;2022-12-10T01:30:35;100800.81;;;5.54;55.21
48614;BME280;34408;51.426;5.444;2022-12-10T01:33:03;100799.19;;;5.53;55.65
48614;BME280;34408;51.426;5.444;2022-12-10T01:35:30;100803.03;;;5.50;55.80
48614;BME280;34408;51.426;5.444;2022-12-10T01:37:58;100809.19;;;5.51;55.84
48614;BME280;34408;51.426;5.444;2022-12-10T01:40:27;100812.88;;;5.50;55.75
48614;BME280;34408;51.426;5.444;2022-12-10T01:42:56;100811.69;;;5.52;55.59
48614;BME280;34408;51.426;5.444;2022-12-10T01:45:26;100820.06;;;5.49;55.53
48614;BME280;34408;51.426;5.444;2022-12-10T01:47:54;100823.34;;;5.51;55.82
48614;BME280;34408;51.426;5.444;2022-12-10T01:50:21;100826.22;;;5.50;55.90
48614;BME280;34408;51.426;5.444;2022-12-10T01:52:50;100826.59;;;5.47;55.99
48614;BME280;34408;51.426;5.444;2022-12-10T01:55:41;100831.28;;;5.45;55.99
48614;BME280;34408;51.426;5.444;2022-12-10T01:58:10;100825.13;;;5.44;56.45
48614;BME280;34408;51.426;5.444;2022-12-10T02:00:45;100831.47;;;5.43;56.38
48614;BME280;34408;51.426;5.444;2022-12-10T02:03:19;100819.97;;;5.43;56.42
48614;BME280;34408;51.426;5.444;2022-12-10T02:05:52;100832.47;;;5.42;56.46
48614;BME280;34408;51.426;5.444;2022-12-10T02:08:27;100828.16;;;5.41;56.46
48614;BME280;34408;51.426;5.444;2022-12-10T02:11:06;100833.69;;;5.40;56.21
48614;BME280;34408;51.426;5.444;2022-12-10T02:13:42;100838.19;;;5.39;56.43
48614;BME280;34408;51.426;5.444;2022-12-10T02:16:14;100843.53;;;5.39;56.22
48614;BME280;34408;51.426;5.444;2022-12-10T02:18:46;100842.31;;;5.42;55.94
48614;BME280;34408;51.426;5.444;2022-12-10T02:21:19;100839.19;;;5.38;55.98
48614;BME280;34408;51.426;5.444;2022-12-10T02:23:51;100834.06;;;5.37;55.69
48614;BME280;34408;51.426;5.444;2022-12-10T02:26:26;100829.75;;;5.36;56.15
48614;BME280;34408;51.426;5.444;2022-12-10T02:29:07;100817.44;;;5.35;56.27
48614;BME280;34408;51.426;5.444;2022-12-10T02:31:41;100816.63;;;5.34;55.97
48614;BME280;34408;51.426;5.444;2022-12-10T02:34:11;100818.25;;;5.35;56.36
48614;BME280;34408;51.426;5.444;2022-12-10T02:36:42;100812.09;;;5.35;56.38
48614;BME280;34408;51.426;5.444;2022-12-10T02:39:13;100805.13;;;5.34;56.06
48614;BME280;34408;51.426;5.444;2022-12-10T02:41:47;100804.31;;;5.33;56.62
48614;BME280;34408;51.426;5.444;2022-12-10T02:44:18;100795.47;;;5.33;56.64
48614;BME280;34408;51.426;5.444;2022-12-10T02:46:51;100795.47;;;5.33;56.57
48614;BME280;34408;51.426;5.444;2022-12-10T02:49:20;100791.53;;;5.29;56.88
48614;BME280;34408;51.426;5.444;2022-12-10T02:51:48;100799.34;;;5.30;56.78
48614;BME280;34408;51.426;5.444;2022-12-10T02:54:38;100801.38;;;5.28;56.86
48614;BME280;34408;51.426;5.444;2022-12-10T02:57:15;100802.84;;;5.31;56.91
48614;BME280;34408;51.426;5.444;2022-12-10T02:59:59;100812.03;;;5.28;57.12
48614;BME280;34408;51.426;5.444;2022-12-10T03:02:34;100821.69;;;5.29;56.78
48614;BME280;34408;51.426;5.444;2022-12-10T03:05:14;100819.00;;;5.29;56.75
48614;BME280;34408;51.426;5.444;2022-12-10T03:07:49;100815.72;;;5.27;56.80
48614;BME280;34408;51.426;5.444;2022-12-10T03:10:24;100818.19;;;5.29;56.28
48614;BME280;34408;51.426;5.444;2022-12-10T03:12:58;100820.03;;;5.28;56.93
48614;BME280;34408;51.426;5.444;2022-12-10T03:15:30;100821.88;;;5.28;56.25
48614;BME280;34408;51.426;5.444;2022-12-10T03:18:02;100824.53;;;5.28;56.58
48614;BME280;34408;51.426;5.444;2022-12-10T03:20:32;100822.25;;;5.24;56.99
48614;BME280;34408;51.426;5.444;2022-12-10T03:23:01;100824.91;;;5.24;56.96
48614;BME280;34408;51.426;5.444;2022-12-10T03:25:32;100824.72;;;5.26;56.57
48614;BME280;34408;51.426;5.444;2022-12-10T03:28:00;100807.22;;;5.17;57.06
48614;BME280;34408;51.426;5.444;2022-12-10T03:30:31;100826.56;;;5.26;57.00
48614;BME280;34408;51.426;5.444;2022-12-10T03:33:00;100824.91;;;5.24;57.08
48614;BME280;34408;51.426;5.444;2022-12-10T03:35:28;100824.91;;;5.24;56.91
48614;BME280;34408;51.426;5.444;2022-12-10T03:37:56;100826.09;;;5.22;56.63
48614;BME280;34408;51.426;5.444;2022-12-10T03:40:25;100825.09;;;5.23;56.55
48614;BME280;34408;51.426;5.444;2022-12-10T03:42:53;100826.94;;;5.22;56.70
48614;BME280;34408;51.426;5.444;2022-12-10T03:45:20;100829.59;;;5.22;57.04
48614;BME280;34408;51.426;5.444;2022-12-10T03:47:49;100824.91;;;5.24;56.91
48614;BME280;34408;51.426;5.444;2022-12-10T03:50:17;100823.91;;;5.26;56.61
48614;BME280;34408;51.426;5.444;2022-12-10T03:52:45;100831.88;;;5.26;56.52
48614;BME280;34408;51.426;5.444;2022-12-10T03:55:13;100826.56;;;5.26;56.91
48614;BME280;34408;51.426;5.444;2022-12-10T03:57:41;100825.91;;;5.23;57.00
48614;BME280;34408;51.426;5.444;2022-12-10T04:00:10;100831.25;;;5.23;56.60
48614;BME280;34408;51.426;5.444;2022-12-10T04:02:38;100825.09;;;5.23;57.06
48614;BME280;34408;51.426;5.444;2022-12-10T04:05:07;100830.22;;;5.24;56.82
48614;BME280;34408;51.426;5.444;2022-12-10T04:07:35;100828.59;;;5.23;56.74
48614;BME280;34408;51.426;5.444;2022-12-10T04:10:03;100834.91;;;5.22;56.43
48614;BME280;34408;51.426;5.444;2022-12-10T04:12:32;100835.13;;;5.21;56.64
48614;BME280;34408;51.426;5.444;2022-12-10T04:14:59;100835.13;;;5.21;56.71
48614;BME280;34408;51.426;5.444;2022-12-10T04:17:45;100833.28;;;5.21;56.99
48614;BME280;34408;51.426;5.444;2022-12-10T04:20:14;100834.28;;;5.20;57.04
48614;BME280;34408;51.426;5.444;2022-12-10T04:22:55;100825.69;;;5.18;57.07
48614;BME280;34408;51.426;5.444;2022-12-10T04:25:41;100837.78;;;5.21;56.76
48614;BME280;34408;51.426;5.444;2022-12-10T04:28:26;100836.94;;;5.20;57.02
48614;BME280;34408;51.426;5.444;2022-12-10T04:30:54;100843.31;;;5.19;56.80
48614;BME280;34408;51.426;5.444;2022-12-10T04:33:21;100847.00;;;5.18;57.16
48614;BME280;34408;51.426;5.444;2022-12-10T04:35:51;100847.81;;;5.19;56.98
48614;BME280;34408;51.426;5.444;2022-12-10T04:38:18;100846.34;;;5.16;57.19
48614;BME280;34408;51.426;5.444;2022-12-10T04:40:46;100851.69;;;5.16;56.81
48614;BME280;34408;51.426;5.444;2022-12-10T04:43:13;100851.88;;;5.15;57.46
48614;BME280;34408;51.426;5.444;2022-12-10T04:45:41;100845.91;;;5.13;57.44
48614;BME280;34408;51.426;5.444;2022-12-10T04:48:09;100851.06;;;5.14;57.01
48614;BME280;34408;51.426;5.444;2022-12-10T04:50:37;100855.72;;;5.12;57.14
48614;BME280;34408;51.426;5.444;2022-12-10T04:53:06;100858.41;;;5.12;57.60
48614;BME280;34408;51.426;5.444;2022-12-10T04:55:33;100854.91;;;5.12;57.76
48614;BME280;34408;51.426;5.444;2022-12-10T04:58:01;100845.81;;;5.06;57.25
48614;BME280;34408;51.426;5.444;2022-12-10T05:00:29;100854.28;;;5.10;57.30
48614;BME280;34408;51.426;5.444;2022-12-10T05:02:56;100854.09;;;5.11;57.36
48614;BME280;34408;51.426;5.444;2022-12-10T05:05:24;100854.09;;;5.11;57.56
48614;BME280;34408;51.426;5.444;2022-12-10T05:07:52;100848.94;;;5.10;57.29
48614;BME280;34408;51.426;5.444;2022-12-10T05:10:21;100852.63;;;5.09;57.40
48614;BME280;34408;51.426;5.444;2022-12-10T05:12:48;100851.59;;;5.10;57.39
48614;BME280;34408;51.426;5.444;2022-12-10T05:15:16;100847.47;;;5.07;57.58
48614;BME280;34408;51.426;5.444;2022-12-10T05:17:44;100852.81;;;5.07;57.41
48614;BME280;34408;51.426;5.444;2022-12-10T05:20:12;100853.81;;;5.06;57.33
48614;BME280;34408;51.426;5.444;2022-12-10T05:22:39;100852.81;;;5.07;57.04
48614;BME280;34408;51.426;5.444;2022-12-10T05:25:26;100856.28;;;5.08;57.04
48614;BME280;34408;51.426;5.444;2022-12-10T05:27:54;100848.13;;;5.09;57.48
48614;BME280;34408;51.426;5.444;2022-12-10T05:30:21;100846.66;;;5.07;57.47
48614;BME280;34408;51.426;5.444;2022-12-10T05:32:49;100849.31;;;5.07;57.15
48614;BME280;34408;51.426;5.444;2022-12-10T05:35:17;100855.00;;;5.04;57.06
48614;BME280;34408;51.426;5.444;2022-12-10T05:37:44;100857.50;;;5.05;57.72
48614;BME280;34408;51.426;5.444;2022-12-10T05:40:12;100854.81;;;5.05;57.34
48614;BME280;34408;51.426;5.444;2022-12-10T05:42:41;100858.31;;;5.06;57.73
48614;BME280;34408;51.426;5.444;2022-12-10T05:45:09;100848.03;;;5.03;57.23
48614;BME280;34408;51.426;5.444;2022-12-10T05:47:37;100853.34;;;5.03;57.35
48614;BME280;34408;51.426;5.444;2022-12-10T05:50:05;100850.06;;;5.01;57.81
48614;BME280;34408;51.426;5.444;2022-12-10T05:52:33;100856.03;;;5.03;58.15
48614;BME280;34408;51.426;5.444;2022-12-10T05:55:01;100860.72;;;5.01;57.48
48614;BME280;34408;51.426;5.444;2022-12-10T05:57:29;100852.91;;;4.99;57.57
48614;BME280;34408;51.426;5.444;2022-12-10T05:59:58;100856.22;;;5.01;57.70
48614;BME280;34408;51.426;5.444;2022-12-10T06:02:25;100860.72;;;5.01;57.67
48614;BME280;34408;51.426;5.444;2022-12-10T06:04:53;100866.75;;;5.09;57.26
48614;BME280;34408;51.426;5.444;2022-12-10T06:07:21;100862.78;;;5.20;56.86
48614;BME280;34408;51.426;5.444;2022-12-10T06:09:49;100860.44;;;5.32;56.35
48614;BME280;34408;51.426;5.444;2022-12-10T06:12:16;100858.13;;;5.43;56.09
48614;BME280;34408;51.426;5.444;2022-12-10T06:14:46;100873.69;;;5.61;55.88
48614;BME280;34408;51.426;5.444;2022-12-10T06:17:15;100869.97;;;5.77;55.34
48614;BME280;34408;51.426;5.444;2022-12-10T06:19:42;100863.78;;;5.91;54.67
48614;BME280;34408;51.426;5.444;2022-12-10T06:22:10;100866.75;;;6.03;54.39
48614;BME280;34408;51.426;5.444;2022-12-10T06:24:38;100861.22;;;6.04;54.40
48614;BME280;34408;51.426;5.444;2022-12-10T06:27:05;100860.53;;;5.96;54.26
48614;BME280;34408;51.426;5.444;2022-12-10T06:29:33;100868.63;;;5.87;54.58
48614;BME280;34408;51.426;5.444;2022-12-10T06:32:01;100865.84;;;5.74;55.36
48614;BME280;34408;51.426;5.444;2022-12-10T06:34:30;100874.16;;;5.65;55.33
48614;BME280;34408;51.426;5.444;2022-12-10T06:36:58;100869.94;;;5.55;55.61
48614;BME280;34408;51.426;5.444;2022-12-10T06:39:26;100872.91;;;5.46;56.14
48614;BME280;34408;51.426;5.444;2022-12-10T06:41:53;100873.47;;;5.41;55.67
48614;BME280;34408;51.426;5.444;2022-12-10T06:44:24;100877.34;;;5.39;56.41
48614;BME280;34408;51.426;5.444;2022-12-10T06:46:52;100879.56;;;5.35;56.38
48614;BME280;34408;51.426;5.444;2022-12-10T06:49:20;100891.59;;;5.31;56.78
48614;BME280;34408;51.426;5.444;2022-12-10T06:51:49;100883.78;;;5.30;56.88
48614;BME280;34408;51.426;5.444;2022-12-10T06:54:16;100890.31;;;5.27;56.46
48614;BME280;34408;51.426;5.444;2022-12-10T06:56:44;100887.00;;;5.25;56.90
48614;BME280;34408;51.426;5.444;2022-12-10T06:59:12;100890.22;;;5.20;57.02
48614;BME280;34408;51.426;5.444;2022-12-10T07:01:40;100899.88;;;5.21;57.14
48614;BME280;34408;51.426;5.444;2022-12-10T07:04:08;100892.28;;;5.18;57.46
48614;BME280;34408;51.426;5.444;2022-12-10T07:06:36;100904.78;;;5.18;57.11
48614;BME280;34408;51.426;5.444;2022-12-10T07:09:05;100904.78;;;5.18;57.71
48614;BME280;34408;51.426;5.444;2022-12-10T07:11:32;100907.63;;;5.16;56.91
48614;BME280;34408;51.426;5.444;2022-12-10T07:14:00;100919.94;;;5.17;57.93
48614;BME280;34408;51.426;5.444;2022-12-10T07:16:30;100916.31;;;5.25;57.41
48614;BME280;34408;51.426;5.444;2022-12-10T07:19:00;100921.44;;;5.41;56.71
48614;BME280;34408;51.426;5.444;2022-12-10T07:21:29;100912.41;;;5.57;56.03
48614;BME280;34408;51.426;5.444;2022-12-10T07:24:02;100918.53;;;5.72;55.44
48614;BME280;34408;51.426;5.444;2022-12-10T07:26:33;100920.63;;;5.92;55.07
48614;BME280;34408;51.426;5.444;2022-12-10T07:29:02;100901.81;;;6.00;54.92
48614;BME280;34408;51.426;5.444;2022-12-10T07:31:30;100914.72;;;6.17;54.27
48614;BME280;34408;51.426;5.444;2022-12-10T07:33:59;100917.50;;;6.31;53.98
48614;BME280;34408;51.426;5.444;2022-12-10T07:36:27;100920.91;;;6.46;53.70
48614;BME280;34408;51.426;5.444;2022-12-10T07:38:55;100930.13;;;6.43;53.75
48614;BME280;34408;51.426;5.444;2022-12-10T07:41:23;100921.63;;;6.33;53.94
48614;BME280;34408;51.426;5.444;2022-12-10T07:43:52;100919.78;;;6.34;53.59
48614;BME280;34408;51.426;5.444;2022-12-10T07:46:22;100923.72;;;6.38;53.74
48614;BME280;34408;51.426;5.444;2022-12-10T07:48:50;100927.41;;;6.37;53.41
48614;BME280;34408;51.426;5.444;2022-12-10T07:51:19;100920.75;;;6.26;54.27
48614;BME280;34408;51.426;5.444;2022-12-10T07:53:51;100928.88;;;6.18;53.98
48614;BME280;34408;51.426;5.444;2022-12-10T07:56:19;100932.44;;;6.04;54.77
48614;BME280;34408;51.426;5.444;2022-12-10T07:58:48;100934.78;;;5.92;55.15
48614;BME280;34408;51.426;5.444;2022-12-10T08:01:19;100938.34;;;5.84;55.43
48614;BME280;34408;51.426;5.444;2022-12-10T08:03:49;100947.50;;;5.75;55.48
48614;BME280;34408;51.426;5.444;2022-12-10T08:06:18;100935.28;;;5.66;55.62
48614;BME280;34408;51.426;5.444;2022-12-10T08:08:47;100942.38;;;5.59;55.91
48614;BME280;34408;51.426;5.444;2022-12-10T08:11:17;100942.94;;;5.54;55.77
48614;BME280;34408;51.426;5.444;2022-12-10T08:13:46;100941.66;;;5.50;56.59
48614;BME280;34408;51.426;5.444;2022-12-10T08:16:24;100943.88;;;5.47;56.57
48614;BME280;34408;51.426;5.444;2022-12-10T08:18:54;100948.75;;;5.43;56.33
48614;BME280;34408;51.426;5.444;2022-12-10T08:21:24;100958.13;;;5.39;56.79
48614;BME280;34408;51.426;5.444;2022-12-10T08:23:53;100960.13;;;5.37;56.41
48614;BME280;34408;51.426;5.444;2022-12-10T08:26:24;100966.03;;;5.33;56.78
48614;BME280;34408;51.426;5.444;2022-12-10T08:28:53;100961.88;;;5.30;56.91
48614;BME280;34408;51.426;5.444;2022-12-10T08:31:24;100968.41;;;5.28;57.09
48614;BME280;34408;51.426;5.444;2022-12-10T08:33:52;100965.09;;;5.26;57.18
48614;BME280;34408;51.426;5.444;2022-12-10T08:36:20;100973.28;;;5.24;56.89
48614;BME280;34408;51.426;5.444;2022-12-10T08:38:48;100975.31;;;5.22;57.05
48614;BME280;34408;51.426;5.444;2022-12-10T08:41:17;100980.03;;;5.20;57.63
48614;BME280;34408;51.426;5.444;2022-12-10T08:43:46;100978.38;;;5.19;57.54
48614;BME280;34408;51.426;5.444;2022-12-10T08:46:14;100978.56;;;5.17;57.37
48614;BME280;34408;51.426;5.444;2022-12-10T08:48:43;100984.72;;;5.18;57.09
48614;BME280;34408;51.426;5.444;2022-12-10T08:51:16;100988.38;;;5.17;57.49
48614;BME280;34408;51.426;5.444;2022-12-10T08:53:45;100986.72;;;5.16;57.25
48614;BME280;34408;51.426;5.444;2022-12-10T08:56:13;100993.91;;;5.15;57.21
48614;BME280;34408;51.426;5.444;2022-12-10T08:58:41;100994.91;;;5.14;57.16
48614;BME280;34408;51.426;5.444;2022-12-10T09:01:11;100993.25;;;5.13;57.64
48614;BME280;34408;51.426;5.444;2022-12-10T09:03:39;100994.06;;;5.14;57.48
48614;BME280;34408;51.426;5.444;2022-12-10T09:06:10;100997.38;;;5.16;57.82
48614;BME280;34408;51.426;5.444;2022-12-10T09:08:38;100994.06;;;5.14;57.83
48614;BME280;34408;51.426;5.444;2022-12-10T09:11:07;100993.25;;;5.13;57.82
48614;BME280;34408;51.426;5.444;2022-12-10T09:13:34;100992.59;;;5.11;57.61
48614;BME280;34408;51.426;5.444;2022-12-10T09:16:02;100999.59;;;5.12;57.81
48614;BME280;34408;51.426;5.444;2022-12-10T09:18:33;101004.81;;;5.06;57.22
48614;BME280;34408;51.426;5.444;2022-12-10T09:21:05;101001.38;;;4.82;57.96
48614;BME280;34408;51.426;5.444;2022-12-10T09:23:35;100999.88;;;4.65;58.88
48614;BME280;34408;51.426;5.444;2022-12-10T09:26:05;101004.28;;;4.73;58.97
48614;BME280;34408;51.426;5.444;2022-12-10T09:28:34;101001.13;;;4.92;59.00
48614;BME280;34408;51.426;5.444;2022-12-10T09:31:03;101000.78;;;5.10;57.91
48614;BME280;34408;51.426;5.444;2022-12-10T09:33:40;101000.22;;;5.29;57.42
48614;BME280;34408;51.426;5.444;2022-12-10T09:36:10;101006.25;;;5.52;56.73
48614;BME280;34408;51.426;5.444;2022-12-10T09:38:42;101008.38;;;5.72;56.15
48614;BME280;34408;51.426;5.444;2022-12-10T09:41:30;101013.50;;;5.88;55.35
48614;BME280;34408;51.426;5.444;2022-12-10T09:44:06;101016.34;;;6.01;55.11
48614;BME280;34408;51.426;5.444;2022-12-10T09:46:45;101014.25;;;5.97;55.10
48614;BME280;34408;51.426;5.444;2022-12-10T09:49:23;101014.03;;;5.83;55.33
48614;BME280;34408;51.426;5.444;2022-12-10T09:51:59;101019.03;;;5.72;55.92
48614;BME280;34408;51.426;5.444;2022-12-10T09:54:32;101022.81;;;5.63;56.21
48614;BME280;34408;51.426;5.444;2022-12-10T09:57:01;101030.53;;;5.57;56.75
48614;BME280;34408;51.426;5.444;2022-12-10T09:59:34;101022.63;;;5.49;56.69
48614;BME280;34408;51.426;5.444;2022-12-10T10:02:20;101030.81;;;5.48;56.67
48614;BME280;34408;51.426;5.444;2022-12-10T10:04:49;101032.66;;;5.47;57.19
48614;BME280;34408;51.426;5.444;2022-12-10T10:07:20;101031.38;;;5.43;57.40
48614;BME280;34408;51.426;5.444;2022-12-10T10:09:51;101030.53;;;5.43;57.50
48614;BME280;34408;51.426;5.444;2022-12-10T10:12:22;101031.38;;;5.43;57.49
48614;BME280;34408;51.426;5.444;2022-12-10T10:14:50;101041.84;;;5.45;57.25
48614;BME280;34408;51.426;5.444;2022-12-10T10:17:21;101033.56;;;5.40;57.50
48614;BME280;34408;51.426;5.444;2022-12-10T10:19:58;101043.03;;;5.42;57.70
48614;BME280;34408;51.426;5.444;2022-12-10T10:22:26;101039.91;;;5.39;57.59
48614;BME280;34408;51.426;5.444;2022-12-10T10:24:55;101033.94;;;5.37;57.31
48614;BME280;34408;51.426;5.444;2022-12-10T10:27:24;101037.78;;;5.34;57.07
48614;BME280;34408;51.426;5.444;2022-12-10T10:29:55;101035.31;;;5.33;57.13
48614;BME280;34408;51.426;5.444;2022-12-10T10:32:27;101042.47;;;5.32;57.44
48614;BME280;34408;51.426;5.444;2022-12-10T10:34:57;101017.09;;;5.21;57.66
48614;BME280;34408;51.426;5.444;2022-12-10T10:37:27;101030.34;;;5.30;57.89
48614;BME280;34408;51.426;5.444;2022-12-10T10:39:57;101033.00;;;5.30;57.83
48614;BME280;34408;51.426;5.444;2022-12-10T10:42:34;101036.31;;;5.32;57.92
48614;BME280;34408;51.426;5.444;2022-12-10T10:45:03;101034.66;;;5.31;57.80
48614;BME280;34408;51.426;5.444;2022-12-10T10:47:34;101039.34;;;5.29;57.50
48614;BME280;34408;51.426;5.444;2022-12-10T10:50:04;101043.47;;;5.31;57.86
48614;BME280;34408;51.426;5.444;2022-12-10T10:52:36;101041.00;;;5.30;57.72
48614;BME280;34408;51.426;5.444;2022-12-10T10:55:31;101041.19;;;5.28;57.59
48614;BME280;34408;51.426;5.444;2022-12-10T10:58:01;101042.94;;;5.06;57.98
48614;BME280;34408;51.426;5.444;2022-12-10T11:00:29;101038.44;;;5.07;58.66
48614;BME280;34408;51.426;5.444;2022-12-10T11:02:57;101036.34;;;5.17;57.87
48614;BME280;34408;51.426;5.444;2022-12-10T11:05:26;101028.59;;;5.22;58.23
48614;BME280;34408;51.426;5.444;2022-12-10T11:08:04;101026.84;;;5.29;57.74
48614;BME280;34408;51.426;5.444;2022-12-10T11:10:33;101024.00;;;5.31;57.54
48614;BME280;34408;51.426;5.444;2022-12-10T11:13:05;101017.03;;;5.30;58.16
48614;BME280;34408;51.426;5.444;2022-12-10T11:15:35;101023.09;;;5.38;57.49
48614;BME280;34408;51.426;5.444;2022-12-10T11:18:23;101027.50;;;5.46;58.14
48614;BME280;34408;51.426;5.444;2022-12-10T11:21:01;101032.00;;;5.60;57.90
48614;BME280;34408;51.426;5.444;2022-12-10T11:23:31;101019.94;;;5.79;56.87
48614;BME280;34408;51.426;5.444;2022-12-10T11:26:11;101019.19;;;6.00;55.92
48614;BME280;34408;51.426;5.444;2022-12-10T11:28:51;101007.91;;;6.19;55.47
48614;BME280;34408;51.426;5.444;2022-12-10T11:31:45;101006.03;;;6.34;54.81
48614;BME280;34408;51.426;5.444;2022-12-10T11:34:20;101011.16;;;6.36;55.10
48614;BME280;34408;51.426;5.444;2022-12-10T11:36:59;101009.06;;;6.31;55.33
48614;BME280;34408;51.426;5.444;2022-12-10T11:39:45;101009.84;;;6.25;55.59
48614;BME280;34408;51.426;5.444;2022-12-10T11:42:24;101015.47;;;6.15;55.68
48614;BME280;34408;51.426;5.444;2022-12-10T11:45:02;101015.41;;;6.09;55.85
48614;BME280;34408;51.426;5.444;2022-12-10T11:47:42;101012.03;;;6.00;56.10
48614;BME280;34408;51.426;5.444;2022-12-10T11:50:19;101007.44;;;5.94;56.24
48614;BME280;34408;51.426;5.444;2022-12-10T11:53:13;101004.66;;;5.87;56.48
48614;BME280;34408;51.426;5.444;2022-12-10T11:55:50;100997.31;;;5.75;56.46
48614;BME280;34408;51.426;5.444;2022-12-10T11:58:40;101024.06;;;5.81;56.24
48614;BME280;34408;51.426;5.444;2022-12-10T12:01:19;101027.13;;;5.78;56.69
48614;BME280;34408;51.426;5.444;2022-12-10T12:06:58;101027.03;;;5.72;56.98
48614;BME280;34408;51.426;5.444;2022-12-10T12:09:35;101019.59;;;5.67;57.12
48614;BME280;34408;51.426;5.444;2022-12-10T12:12:18;101022.44;;;5.66;56.99
48614;BME280;34408;51.426;5.444;2022-12-10T12:14:53;101019.13;;;5.64;57.04
48614;BME280;34408;51.426;5.444;2022-12-10T12:17:28;101019.31;;;5.62;57.22
48614;BME280;34408;51.426;5.444;2022-12-10T12:20:00;101017.84;;;5.60;57.33
48614;BME280;34408;51.426;5.444;2022-12-10T12:22:33;101018.66;;;5.60;57.46
48614;BME280;34408;51.426;5.444;2022-12-10T12:25:05;101026.03;;;5.58;57.08
48614;BME280;34408;51.426;5.444;2022-12-10T12:27:35;101018.41;;;5.55;57.46
48614;BME280;34408;51.426;5.444;2022-12-10T12:30:13;101015.09;;;5.53;57.55
48614;BME280;34408;51.426;5.444;2022-12-10T12:32:51;101018.41;;;5.55;57.88
48614;BME280;34408;51.426;5.444;2022-12-10T12:35:23;101017.56;;;5.54;57.61
48614;BME280;34408;51.426;5.444;2022-12-10T12:37:58;101016.09;;;5.52;57.58
48614;BME280;34408;51.426;5.444;2022-12-10T12:40:29;101008.75;;;5.54;57.81
48614;BME280;34408;51.426;5.444;2022-12-10T12:42:59;101016.94;;;5.52;57.75
48614;BME280;34408;51.426;5.444;2022-12-10T12:45:36;101011.78;;;5.51;57.73
48614;BME280;34408;51.426;5.444;2022-12-10T12:48:17;101011.97;;;5.49;57.67
48614;BME280;34408;51.426;5.444;2022-12-10T12:50:51;101015.66;;;5.48;58.00
48614;BME280;34408;51.426;5.444;2022-12-10T12:53:22;101021.16;;;5.47;57.80
48614;BME280;34408;51.426;5.444;2022-12-10T12:55:57;101001.13;;;5.36;58.03
48614;BME280;34408;51.426;5.444;2022-12-10T12:58:38;101027.50;;;5.46;58.05
48614;BME280;34408;51.426;5.444;2022-12-10T13:01:22;101025.03;;;5.44;58.25
48614;BME280;34408;51.426;5.444;2022-12-10T13:03:55;101024.38;;;5.42;58.07
48614;BME280;34408;51.426;5.444;2022-12-10T13:06:26;101035.03;;;5.42;58.23
48614;BME280;34408;51.426;5.444;2022-12-10T13:08:58;101034.22;;;5.42;57.87
48614;BME280;34408;51.426;5.444;2022-12-10T13:11:44;101012.69;;;5.29;58.27
48614;BME280;34408;51.426;5.444;2022-12-10T13:14:32;101035.59;;;5.52;57.63
48614;BME280;34408;51.426;5.444;2022-12-10T13:17:26;101037.59;;;5.65;57.36
48614;BME280;34408;51.426;5.444;2022-12-10T13:20:28;101023.06;;;5.82;56.84
48614;BME280;34408;51.426;5.444;2022-12-10T13:22:57;101017.53;;;5.99;56.47
48614;BME280;34408;51.426;5.444;2022-12-10T13:25:55;101029.47;;;6.17;55.85